Albany, Oklahoma
Current Conditions -  °F | °C
As of 4:15 AM on Sunday 26 Oct 2014 (Local Time) from KDUA Reporting Station
Clear Clear  
Wind Chill: 63°   Ceiling: Unl
Heat Index: 63°   Visibility: 10mi
Dew Point: 61°   Wind: 6mph
Humidity: 94%   Direction: 200°SSW
Pressure: 29.99"   Gusts: NA
Location:  33.88°N, 96.16°W
Report Text: KDUA 260915Z AUTO 20005KT 10SM CLR 17/16 A2999 RMK AO2
Loading
Personal Weather Stations






























Interactive Weather Map
Tropical Storm Tracking
New forecast layout! Learn more

10-Day Weather Forecast

Advertisements
Track Severe Weather on mobile